createdAt,value
2019-02-12T00:00:44.749Z,1.50
2019-02-12T00:03:14.133Z,1.97
2019-02-12T00:05:43.465Z,1.90
2019-02-12T00:08:12.753Z,1.60
2019-02-12T00:10:42.158Z,1.90
2019-02-12T00:13:11.812Z,2.20
2019-02-12T00:15:41.132Z,1.90
2019-02-12T00:18:10.480Z,1.90
2019-02-12T00:20:39.740Z,2.70
2019-02-12T00:23:09.324Z,3.23
2019-02-12T00:25:38.728Z,2.40
2019-02-12T00:28:08.096Z,2.57
2019-02-12T00:30:37.369Z,2.20
2019-02-12T00:33:06.742Z,2.30
2019-02-12T00:35:36.028Z,2.47
2019-02-12T00:38:05.488Z,2.60
2019-02-12T00:40:34.796Z,2.03
2019-02-12T00:43:04.092Z,2.80
2019-02-12T00:45:33.478Z,2.47
2019-02-12T00:48:02.820Z,3.07
2019-02-12T00:50:32.106Z,2.50
2019-02-12T00:53:01.396Z,2.43
2019-02-12T00:55:30.644Z,2.90
2019-02-12T00:57:59.920Z,2.30
2019-02-12T01:00:29.188Z,2.23
2019-02-12T01:02:58.652Z,2.23
2019-02-12T01:05:28.032Z,2.57
2019-02-12T01:07:57.394Z,2.10
2019-02-12T01:10:26.672Z,3.77
2019-02-12T01:12:55.935Z,2.40
2019-02-12T01:15:25.187Z,2.60
2019-02-12T01:17:54.791Z,2.60
2019-02-12T01:20:25.015Z,1.87
2019-02-12T01:22:54.267Z,2.27
2019-02-12T01:25:23.556Z,2.30
2019-02-12T01:27:52.906Z,1.83
2019-02-12T01:30:22.219Z,1.70
2019-02-12T01:32:51.507Z,2.60
2019-02-12T01:35:20.807Z,2.10
2019-02-12T01:37:50.075Z,2.40
2019-02-12T01:40:19.443Z,2.50
2019-02-12T01:42:48.781Z,3.13
2019-02-12T01:45:18.155Z,2.30
2019-02-12T01:47:47.447Z,2.30
2019-02-12T01:50:16.697Z,2.40
2019-02-12T01:52:46.085Z,2.43
2019-02-12T01:55:15.339Z,2.40
2019-02-12T01:57:44.737Z,2.47
2019-02-12T02:00:14.881Z,2.50
2019-02-12T02:02:44.447Z,2.50
2019-02-12T02:05:13.755Z,2.10
2019-02-12T02:07:42.994Z,2.27
2019-02-12T02:10:14.711Z,2.70
2019-02-12T02:12:43.974Z,2.50
2019-02-12T02:15:13.410Z,2.10
2019-02-12T02:17:42.654Z,2.37
2019-02-12T02:20:12.650Z,2.80
2019-02-12T02:22:41.922Z,2.50
2019-02-12T02:25:11.482Z,2.60
2019-02-12T02:27:40.762Z,2.30
2019-02-12T02:30:11.303Z,2.07
2019-02-12T02:32:40.574Z,2.20
2019-02-12T02:35:09.834Z,2.13
2019-02-12T02:37:39.122Z,2.20
2019-02-12T02:40:09.013Z,2.33
2019-02-12T02:42:38.317Z,2.57
2019-02-12T02:45:08.274Z,2.10
2019-02-12T02:47:37.566Z,2.50
2019-02-12T02:50:07.446Z,2.43
2019-02-12T02:52:36.841Z,2.30
2019-02-12T02:55:06.233Z,3.00
2019-02-12T02:57:35.595Z,2.27
2019-02-12T03:00:06.215Z,2.00
2019-02-12T03:02:35.634Z,3.03
2019-02-12T03:05:05.373Z,2.40
2019-02-12T03:07:34.702Z,2.33
2019-02-12T03:10:04.357Z,3.43
2019-02-12T03:12:33.614Z,2.47
2019-02-12T03:15:02.950Z,3.30
2019-02-12T03:17:32.241Z,2.73
2019-02-12T03:20:01.733Z,3.00
2019-02-12T03:22:30.968Z,3.47
2019-02-12T03:25:00.321Z,2.83
2019-02-12T03:27:29.630Z,2.63
2019-02-12T03:29:58.880Z,2.93
2019-02-12T03:32:28.165Z,3.20
2019-02-12T03:34:57.505Z,2.87
2019-02-12T03:37:26.830Z,2.87
2019-02-12T03:39:56.154Z,3.07
2019-02-12T03:42:25.417Z,3.30
2019-02-12T03:44:54.722Z,2.97
2019-02-12T03:47:24.014Z,4.03
2019-02-12T03:49:53.413Z,2.83
2019-02-12T03:52:22.736Z,2.77
2019-02-12T03:54:52.020Z,3.60
2019-02-12T03:57:21.349Z,2.47
2019-02-12T03:59:50.749Z,2.37
2019-02-12T04:02:20.074Z,2.73
2019-02-12T04:04:49.390Z,3.27
2019-02-12T04:07:18.680Z,3.33
2019-02-12T04:09:47.960Z,2.70
2019-02-12T04:12:17.277Z,3.23
2019-02-12T04:14:46.537Z,2.87
2019-02-12T04:17:15.820Z,2.80
2019-02-12T04:19:45.080Z,2.80
2019-02-12T04:22:22.312Z,3.00
2019-02-12T04:24:45.297Z,2.90
2019-02-12T04:27:14.617Z,2.80
2019-02-12T04:29:43.881Z,3.07
2019-02-12T04:32:13.311Z,2.70
2019-02-12T04:34:42.680Z,2.90
2019-02-12T04:37:11.932Z,2.90
2019-02-12T04:39:41.236Z,2.87
2019-02-12T04:42:10.476Z,2.23
2019-02-12T04:44:39.791Z,3.07
2019-02-12T04:47:09.090Z,2.63
2019-02-12T04:49:38.416Z,3.00
2019-02-12T04:52:07.681Z,3.27
2019-02-12T04:54:36.939Z,2.50
2019-02-12T04:57:06.211Z,2.60
2019-02-12T04:59:35.616Z,3.30
2019-02-12T05:02:04.996Z,2.87
2019-02-12T05:04:34.248Z,2.50
2019-02-12T05:07:03.568Z,2.50
2019-02-12T05:09:34.064Z,2.70
2019-02-12T05:12:05.323Z,3.00
2019-02-12T05:14:34.584Z,2.80
2019-02-12T05:17:03.947Z,1.93
2019-02-12T05:19:33.280Z,2.20
2019-02-12T05:22:02.556Z,2.83
2019-02-12T05:24:32.259Z,2.03
2019-02-12T05:27:01.642Z,2.80
2019-02-12T05:29:31.097Z,2.53
2019-02-12T05:32:00.360Z,2.57
2019-02-12T05:34:29.647Z,2.13
2019-02-12T05:36:58.975Z,2.17
2019-02-12T05:39:28.214Z,2.50
2019-02-12T05:41:57.582Z,3.17
2019-02-12T05:44:26.942Z,2.70
2019-02-12T05:46:56.327Z,2.60
2019-02-12T05:49:25.604Z,2.87
2019-02-12T05:51:54.863Z,2.60
2019-02-12T05:54:24.131Z,2.70
2019-02-12T05:56:53.419Z,2.67
2019-02-12T05:59:22.757Z,2.10
2019-02-12T06:01:52.111Z,2.50
2019-02-12T06:04:21.319Z,2.40
2019-02-12T06:06:50.679Z,2.73
2019-02-12T06:09:19.939Z,2.50
2019-02-12T06:11:50.063Z,3.13
2019-02-12T06:14:19.444Z,3.30
2019-02-12T06:16:48.760Z,3.97
2019-02-12T06:19:18.035Z,2.50
2019-02-12T06:21:47.318Z,2.63
2019-02-12T06:24:16.603Z,2.47
2019-02-12T06:26:45.907Z,8.07
2019-02-12T06:29:15.187Z,3.43
2019-02-12T06:31:44.471Z,4.63
2019-02-12T06:34:13.742Z,2.30
2019-02-12T06:36:43.074Z,3.60
2019-02-12T06:39:12.328Z,2.77
2019-02-12T06:41:41.606Z,2.73
2019-02-12T06:44:10.900Z,2.73
2019-02-12T06:46:40.195Z,2.63
2019-02-12T06:49:09.458Z,2.50
2019-02-12T06:51:38.726Z,3.73
2019-02-12T06:54:07.974Z,2.60
2019-02-12T06:56:37.226Z,2.83
2019-02-12T06:59:06.518Z,2.60
2019-02-12T07:01:35.884Z,2.53
2019-02-12T07:04:11.569Z,2.33
2019-02-12T07:07:33.027Z,2.17
2019-02-12T07:10:15.674Z,2.33
2019-02-12T07:13:24.371Z,2.47
2019-02-12T07:16:22.037Z,2.10
2019-02-12T07:19:23.245Z,2.50
2019-02-12T07:22:42.174Z,2.13
2019-02-12T07:25:38.347Z,3.20
2019-02-12T07:28:47.937Z,3.07
2019-02-12T07:31:54.066Z,3.63
2019-02-12T07:34:38.512Z,2.40
2019-02-12T07:37:44.146Z,2.87
2019-02-12T07:41:19.876Z,2.50
2019-02-12T07:44:22.698Z,2.90
2019-02-12T07:47:20.855Z,2.60
2019-02-12T07:50:22.335Z,2.50
2019-02-12T07:53:35.911Z,2.90
2019-02-12T07:56:29.937Z,2.50
2019-02-12T07:59:38.095Z,2.33
2019-02-12T08:02:47.998Z,2.77
2019-02-12T08:06:04.359Z,2.50
2019-02-12T08:09:35.604Z,2.00
2019-02-12T08:12:28.526Z,2.20
2019-02-12T08:15:40.834Z,3.53
2019-02-12T08:18:35.699Z,2.93
2019-02-12T08:21:32.114Z,2.60
2019-02-12T08:24:48.512Z,2.77
2019-02-12T08:27:57.506Z,3.67
2019-02-12T08:31:02.757Z,3.00
2019-02-12T08:34:12.146Z,4.00
2019-02-12T08:37:32.041Z,1.90
2019-02-12T08:40:33.480Z,4.10
2019-02-12T08:43:31.620Z,2.30
2019-02-12T08:46:40.215Z,3.70
2019-02-12T08:49:35.372Z,2.13
2019-02-12T08:52:45.894Z,2.40
2019-02-12T08:55:33.138Z,2.20
2019-02-12T08:58:27.050Z,2.30
2019-02-12T09:01:49.623Z,2.07
2019-02-12T09:05:02.259Z,1.90
2019-02-12T09:07:52.746Z,2.70
2019-02-12T09:11:03.208Z,1.90
2019-02-12T09:14:06.720Z,1.83
2019-02-12T09:17:15.675Z,2.13
2019-02-12T09:20:43.834Z,2.33
2019-02-12T09:24:09.375Z,2.30
2019-02-12T09:27:21.531Z,2.33
2019-02-12T09:30:46.534Z,1.77
2019-02-12T09:33:41.740Z,1.93
2019-02-12T09:36:36.299Z,2.03
2019-02-12T09:39:50.452Z,2.23
2019-02-12T09:42:54.900Z,1.90
2019-02-12T09:45:41.879Z,2.07
2019-02-12T09:48:45.210Z,2.13
2019-02-12T09:51:44.926Z,2.10
2019-02-12T09:54:48.513Z,2.03
2019-02-12T09:57:46.542Z,2.03
2019-02-12T10:00:36.830Z,2.20
2019-02-12T10:03:53.389Z,2.20
2019-02-12T10:06:59.395Z,2.93
2019-02-12T10:10:11.781Z,4.37
2019-02-12T10:13:02.709Z,2.30
2019-02-12T10:15:50.730Z,3.40
2019-02-12T10:18:43.718Z,3.30
2019-02-12T10:21:57.525Z,3.53
2019-02-12T10:24:46.973Z,2.53
2019-02-12T10:28:03.037Z,2.83
2019-02-12T10:30:50.046Z,3.00
2019-02-12T10:33:19.404Z,2.00
2019-02-12T10:35:48.692Z,2.30
2019-02-12T10:38:18.078Z,2.43
2019-02-12T10:40:47.407Z,3.17
2019-02-12T10:43:16.732Z,3.07
2019-02-12T10:45:46.815Z,3.93
2019-02-12T10:48:17.945Z,2.60
2019-02-12T10:50:47.313Z,7.13
2019-02-12T10:53:16.627Z,2.40
2019-02-12T10:55:45.887Z,2.00
2019-02-12T10:58:15.237Z,1.90
2019-02-12T11:00:44.613Z,2.10
2019-02-12T11:03:13.877Z,2.53
2019-02-12T11:05:43.185Z,1.53
2019-02-12T11:08:12.503Z,2.40
2019-02-12T11:10:41.851Z,4.60
2019-02-12T11:13:11.069Z,6.53
2019-02-12T11:15:40.435Z,10.87
2019-02-12T11:18:09.691Z,2.20
2019-02-12T11:20:39.053Z,3.07
2019-02-12T11:23:08.371Z,2.00
2019-02-12T11:25:37.659Z,2.10
2019-02-12T11:28:06.927Z,2.50
2019-02-12T11:30:36.347Z,3.57
2019-02-12T11:33:07.331Z,2.80
2019-02-12T11:35:36.951Z,2.50
2019-02-12T11:38:06.299Z,1.70
2019-02-12T11:40:35.567Z,3.03
2019-02-12T11:43:04.971Z,2.60
2019-02-12T11:45:34.359Z,3.17
2019-02-12T11:48:03.704Z,2.00
2019-02-12T11:50:33.051Z,1.90
2019-02-12T11:53:02.371Z,1.60
2019-02-12T11:55:31.682Z,2.10
2019-02-12T11:58:01.037Z,2.07
2019-02-12T12:00:35.952Z,2.00
2019-02-12T12:03:05.655Z,1.80
2019-02-12T12:05:34.919Z,2.63
2019-02-12T12:08:04.234Z,3.57
2019-02-12T12:10:33.490Z,3.43
2019-02-12T12:13:02.767Z,2.93
2019-02-12T12:15:32.107Z,1.97
2019-02-12T12:18:01.395Z,2.17
2019-02-12T12:20:30.646Z,2.30
2019-02-12T12:22:59.927Z,1.83
2019-02-12T12:25:29.230Z,2.60
2019-02-12T12:27:58.590Z,1.60
2019-02-12T12:30:27.894Z,2.70
2019-02-12T12:32:57.166Z,5.53
2019-02-12T12:35:26.730Z,1.60
2019-02-12T12:37:55.963Z,1.80
2019-02-12T12:40:25.247Z,4.03
2019-02-12T12:42:54.567Z,1.60
2019-02-12T12:45:23.867Z,1.40
2019-02-12T12:47:53.207Z,2.43
2019-02-12T12:50:22.507Z,2.53
2019-02-12T12:52:52.706Z,2.70
2019-02-12T12:55:21.927Z,1.70
2019-02-12T12:57:53.059Z,3.43
2019-02-12T13:00:22.381Z,2.17
2019-02-12T13:02:51.658Z,2.10
2019-02-12T13:05:20.974Z,1.93
2019-02-12T13:07:50.338Z,1.70
2019-02-12T13:10:19.674Z,2.20
2019-02-12T13:12:48.910Z,2.07
2019-02-12T13:15:18.195Z,2.10
2019-02-12T13:17:47.441Z,2.10
2019-02-12T13:20:16.739Z,2.47
2019-02-12T13:22:46.058Z,1.40
2019-02-12T13:25:15.415Z,2.20
2019-02-12T13:27:44.729Z,4.10
2019-02-12T13:30:16.050Z,2.80
2019-02-12T13:32:45.280Z,2.80
2019-02-12T13:35:14.895Z,2.40
2019-02-12T13:37:44.200Z,2.17
2019-02-12T13:40:13.490Z,3.17
2019-02-12T13:42:42.745Z,1.80
2019-02-12T13:45:13.219Z,1.97
2019-02-12T13:47:42.521Z,2.10
2019-02-12T13:50:12.174Z,1.77
2019-02-12T13:52:41.413Z,2.00
2019-02-12T13:55:17.016Z,1.97
2019-02-12T13:57:42.099Z,3.03
2019-02-12T14:00:12.962Z,2.67
2019-02-12T14:02:42.225Z,1.70
2019-02-12T14:05:13.953Z,1.70
2019-02-12T14:07:43.314Z,1.40
2019-02-12T14:10:12.587Z,2.33
2019-02-12T14:12:41.977Z,2.40
2019-02-12T14:15:11.965Z,2.47
2019-02-12T14:17:41.346Z,2.30
2019-02-12T14:20:12.237Z,2.70
2019-02-12T14:22:41.632Z,2.27
2019-02-12T14:25:11.465Z,2.53
2019-02-12T14:27:40.728Z,5.07
2019-02-12T14:30:12.146Z,3.47
2019-02-12T14:32:41.548Z,6.33
2019-02-12T14:35:11.601Z,2.10
2019-02-12T14:37:40.848Z,1.67
2019-02-12T14:40:10.732Z,2.60
2019-02-12T14:42:40.048Z,1.63
2019-02-12T14:45:11.012Z,2.77
2019-02-12T14:47:40.312Z,3.23
2019-02-12T14:50:10.723Z,1.80
2019-02-12T14:52:40.018Z,3.57
2019-02-12T14:55:09.332Z,2.63
2019-02-12T14:57:38.696Z,2.97
2019-02-12T15:00:10.360Z,2.47
2019-02-12T15:02:39.632Z,2.47
2019-02-12T15:05:09.213Z,2.10
2019-02-12T15:07:38.588Z,2.90
2019-02-12T15:10:09.064Z,1.80
2019-02-12T15:12:38.348Z,1.80
2019-02-12T15:15:08.308Z,2.70
2019-02-12T15:17:37.570Z,1.80
2019-02-12T15:20:07.623Z,2.90
2019-02-12T15:22:36.968Z,8.40
2019-02-12T15:25:06.659Z,4.50
2019-02-12T15:27:36.042Z,3.70
2019-02-12T15:30:07.084Z,4.33
2019-02-12T15:32:36.510Z,2.97
2019-02-12T15:35:06.622Z,1.93
2019-02-12T15:37:36.666Z,3.33
2019-02-12T15:40:07.614Z,2.57
2019-02-12T15:42:36.919Z,3.03
2019-02-12T15:45:07.159Z,2.70
2019-02-12T15:47:36.482Z,3.30
2019-02-12T15:50:06.146Z,3.17
2019-02-12T15:52:35.459Z,3.27
2019-02-12T15:55:05.183Z,4.13
2019-02-12T15:57:34.434Z,9.30
2019-02-12T16:00:05.886Z,10.13
2019-02-12T16:02:35.996Z,7.80
2019-02-12T16:05:05.846Z,3.67
2019-02-12T16:07:35.150Z,4.13
2019-02-12T16:10:05.206Z,8.77
2019-02-12T16:12:34.486Z,9.13
2019-02-12T16:15:03.751Z,8.97
2019-02-12T16:17:33.118Z,9.00
2019-02-12T16:20:02.494Z,5.47
2019-02-12T16:22:31.781Z,3.57
2019-02-12T16:25:01.037Z,3.97
2019-02-12T16:27:30.330Z,4.73
2019-02-12T16:30:01.075Z,7.83
2019-02-12T16:32:30.652Z,10.27
2019-02-12T16:34:59.818Z,6.00
2019-02-12T16:37:29.035Z,5.07
2019-02-12T16:39:58.359Z,4.40
2019-02-12T16:42:27.640Z,13.90
2019-02-12T16:44:56.977Z,14.27
2019-02-12T16:47:26.275Z,6.10
2019-02-12T16:49:55.613Z,3.10
2019-02-12T16:52:24.893Z,3.60
2019-02-12T16:54:54.154Z,3.43
2019-02-12T16:57:23.426Z,4.47
2019-02-12T16:59:52.721Z,5.83
2019-02-12T17:02:25.673Z,4.10
2019-02-12T17:04:55.014Z,5.37
2019-02-12T17:07:24.323Z,5.33
2019-02-12T17:09:53.558Z,4.77
2019-02-12T17:12:22.875Z,4.33
2019-02-12T17:14:52.262Z,4.33
2019-02-12T17:17:22.422Z,5.53
2019-02-12T17:19:51.732Z,5.07
2019-02-12T17:22:21.069Z,4.87
2019-02-12T17:24:50.334Z,4.50
2019-02-12T17:27:19.649Z,4.37
2019-02-12T17:29:48.945Z,5.37
2019-02-12T17:32:18.182Z,3.17
2019-02-12T17:34:47.503Z,4.33
2019-02-12T17:37:16.802Z,3.77
2019-02-12T17:39:46.150Z,3.57
2019-02-12T17:42:15.505Z,3.67
2019-02-12T17:44:44.801Z,3.90
2019-02-12T17:47:14.159Z,3.43
2019-02-12T17:49:43.545Z,3.23
2019-02-12T17:52:12.841Z,3.90
2019-02-12T17:54:42.157Z,4.40
2019-02-12T17:57:11.461Z,3.80
2019-02-12T17:59:40.812Z,3.27
2019-02-12T18:02:10.132Z,6.50
2019-02-12T18:04:39.415Z,4.03
2019-02-12T18:07:08.676Z,3.63
2019-02-12T18:09:37.932Z,4.73
2019-02-12T18:12:07.195Z,4.20
2019-02-12T18:14:36.483Z,4.70
2019-02-12T18:17:05.790Z,3.83
2019-02-12T18:19:35.037Z,3.10
2019-02-12T18:22:04.324Z,6.00
2019-02-12T18:24:33.637Z,3.33
2019-02-12T18:27:03.085Z,5.90
2019-02-12T18:29:32.325Z,4.83
2019-02-12T18:32:01.641Z,9.33
2019-02-12T18:34:30.837Z,7.70
2019-02-12T18:37:00.170Z,6.70
2019-02-12T18:39:29.518Z,10.10
2019-02-12T18:41:58.762Z,11.53
2019-02-12T18:44:28.050Z,7.97
2019-02-12T18:46:57.416Z,6.00
2019-02-12T18:49:26.696Z,8.20
2019-02-12T18:51:56.054Z,10.43
2019-02-12T18:54:25.253Z,9.03
2019-02-12T18:56:55.206Z,10.60
2019-02-12T18:59:24.563Z,13.93
2019-02-12T19:01:53.807Z,12.80
2019-02-12T19:04:23.210Z,11.83
2019-02-12T19:06:52.586Z,10.47
2019-02-12T19:09:21.842Z,11.23
2019-02-12T19:11:54.339Z,9.80
2019-02-12T19:14:22.233Z,9.50
2019-02-12T19:16:51.595Z,9.87
2019-02-12T19:19:20.846Z,12.53
2019-02-12T19:21:50.146Z,11.20
2019-02-12T19:24:19.420Z,16.17
2019-02-12T19:26:50.101Z,19.53
2019-02-12T19:29:19.794Z,20.53
2019-02-12T19:31:49.069Z,17.07
2019-02-12T19:34:18.405Z,20.30
2019-02-12T19:36:47.681Z,17.67
2019-02-12T19:39:17.030Z,14.20
2019-02-12T19:41:46.373Z,11.27
2019-02-12T19:44:15.557Z,8.67
2019-02-12T19:46:44.909Z,11.23
2019-02-12T19:49:14.281Z,10.60
2019-02-12T19:51:43.901Z,10.13
2019-02-12T19:54:13.289Z,10.67
2019-02-12T19:56:42.629Z,10.20
2019-02-12T19:59:11.927Z,11.70
2019-02-12T20:01:41.348Z,8.57
2019-02-12T20:04:10.705Z,9.70
2019-02-12T20:06:40.025Z,18.83
2019-02-12T20:09:15.880Z,31.97
2019-02-12T20:11:45.168Z,43.87
2019-02-12T20:14:14.564Z,34.33
2019-02-12T20:16:43.948Z,23.03
2019-02-12T20:19:13.316Z,15.67
2019-02-12T20:21:42.580Z,11.27
2019-02-12T20:24:11.941Z,11.50
2019-02-12T20:26:41.249Z,10.53
2019-02-12T20:29:10.524Z,10.07
2019-02-12T20:31:39.897Z,8.13
2019-02-12T20:34:09.205Z,9.33
2019-02-12T20:36:38.472Z,9.13
2019-02-12T20:39:07.956Z,9.37
2019-02-12T20:41:37.336Z,9.10
2019-02-12T20:44:06.680Z,9.90
2019-02-12T20:46:36.064Z,10.17
2019-02-12T20:49:05.412Z,9.73
2019-02-12T20:51:34.796Z,8.83
2019-02-12T20:54:04.208Z,8.80
2019-02-12T20:56:33.522Z,10.50
2019-02-12T20:59:02.823Z,9.47
2019-02-12T21:01:32.127Z,8.30
2019-02-12T21:04:01.410Z,9.27
2019-02-12T21:06:30.719Z,9.97
2019-02-12T21:09:00.288Z,10.00
2019-02-12T21:11:29.639Z,9.80
2019-02-12T21:13:58.896Z,9.27
2019-02-12T21:16:28.176Z,9.03
2019-02-12T21:18:57.428Z,8.87
2019-02-12T21:21:26.783Z,10.73
2019-02-12T21:23:56.058Z,8.50
2019-02-12T21:26:25.444Z,8.20
2019-02-12T21:28:54.757Z,7.83
2019-02-12T21:31:24.087Z,9.90
2019-02-12T21:33:53.471Z,9.10
2019-02-12T21:36:22.715Z,9.57
2019-02-12T21:38:52.103Z,8.73
2019-02-12T21:41:21.565Z,9.80
2019-02-12T21:43:50.916Z,9.47
2019-02-12T21:46:20.223Z,8.70
2019-02-12T21:48:49.704Z,7.93
2019-02-12T21:51:19.092Z,7.93
2019-02-12T21:53:48.714Z,7.60
2019-02-12T21:56:18.139Z,7.40
2019-02-12T21:58:47.391Z,7.30
2019-02-12T22:01:17.268Z,6.27
2019-02-12T22:03:46.754Z,7.07
2019-02-12T22:06:16.144Z,8.93
2019-02-12T22:08:45.383Z,8.63
2019-02-12T22:11:14.694Z,7.87
2019-02-12T22:13:44.011Z,8.27
2019-02-12T22:16:13.279Z,7.93
2019-02-12T22:18:42.666Z,7.40
2019-02-12T22:21:12.018Z,8.03
2019-02-12T22:23:41.355Z,8.17
2019-02-12T22:26:10.651Z,7.90
2019-02-12T22:28:39.998Z,7.20
2019-02-12T22:31:09.309Z,8.33
2019-02-12T22:33:38.522Z,6.50
2019-02-12T22:36:07.842Z,6.27
2019-02-12T22:38:37.106Z,6.50
2019-02-12T22:41:06.362Z,6.70
2019-02-12T22:43:35.678Z,5.40
2019-02-12T22:46:04.938Z,6.53
2019-02-12T22:48:34.454Z,5.37
2019-02-12T22:51:03.805Z,5.60
2019-02-12T22:53:33.122Z,6.00
2019-02-12T22:56:02.466Z,5.83
2019-02-12T22:58:31.818Z,6.00
2019-02-12T23:01:08.782Z,6.40
2019-02-12T23:03:38.358Z,8.07
2019-02-12T23:06:07.720Z,8.87
2019-02-12T23:08:37.077Z,8.20
2019-02-12T23:11:06.402Z,8.77
2019-02-12T23:13:35.822Z,8.30
2019-02-12T23:16:05.777Z,8.23
2019-02-12T23:18:35.121Z,8.03
2019-02-12T23:21:04.441Z,7.20
2019-02-12T23:23:33.813Z,7.33
2019-02-12T23:26:03.204Z,5.97
2019-02-12T23:28:32.486Z,6.63
2019-02-12T23:31:03.673Z,6.83
2019-02-12T23:33:33.063Z,7.23
2019-02-12T23:36:02.393Z,7.83
2019-02-12T23:38:31.678Z,7.80
2019-02-12T23:41:00.961Z,7.70
2019-02-12T23:43:30.353Z,8.40
2019-02-12T23:45:59.633Z,8.80
2019-02-12T23:48:28.889Z,7.97
2019-02-12T23:50:58.165Z,9.33
2019-02-12T23:53:27.467Z,8.27
2019-02-12T23:55:56.805Z,9.67
2019-02-12T23:58:26.138Z,8.83
